Time;durP1;ratioP1;P1;durP2;ratioP2;P2;SDS_P1;SDS_P2;PMS_P1;PMS_P2;Temp;Humidity;BMP_temperature;BMP_pressure;BME280_temperature;BME280_humidity;BME280_pressure;Samples;Min_cycle;Max_cycle;Signal;HPM_P1;HPM_P2
2023/01/18 00:02:24;;;;;;;53.63;29.20;;;;;;;;;;5032311;28;20041;-72
2023/01/18 00:04:50;;;;;;;126.35;65.90;;;;;;;;;;5033407;28;20481;-71
2023/01/18 00:07:15;;;;;;;83.63;50.50;;;;;;;;;;5033228;28;20037;-73
2023/01/18 00:09:40;;;;;;;81.30;46.70;;;;;;;;;;4992434;28;1192120;-73
2023/01/18 00:12:06;;;;;;;116.63;71.32;;;;;;;;;;5032874;28;20102;-73
2023/01/18 00:14:31;;;;;;;70.93;45.90;;;;;;;;;;5034240;28;20045;-72
2023/01/18 00:16:56;;;;;;;149.85;91.68;;;;;;;;;;5033692;28;20045;-72
2023/01/18 00:19:22;;;;;;;77.55;48.90;;;;;;;;;;5033744;28;20071;-72
2023/01/18 00:21:54;;;;;;;31.85;21.10;;;;;;;;;;5034021;28;20040;-71
2023/01/18 00:24:22;;;;;;;36.08;27.42;;;;;;;;;;5033971;28;20037;-71
2023/01/18 00:26:48;;;;;;;29.70;22.98;;;;;;;;;;5034040;28;20050;-71
2023/01/18 00:29:13;;;;;;;55.22;44.67;;;;;;;;;;5033864;28;20107;-72
2023/01/18 00:31:39;;;;;;;19.50;13.40;;;;;;;;;;5033932;28;20030;-72
2023/01/18 00:34:05;;;;;;;41.25;33.72;;;;;;;;;;5033929;28;20394;-72
2023/01/18 00:36:30;;;;;;;40.60;28.27;;;;;;;;;;5033501;28;20057;-72
2023/01/18 00:38:57;;;;;;;25.33;18.65;;;;;;;;;;5033515;28;20049;-72
2023/01/18 00:41:22;;;;;;;13.75;8.75;;;;;;;;;;5033727;28;20033;-72
2023/01/18 00:43:48;;;;;;;20.45;15.50;;;;;;;;;;5032519;28;20463;-72
2023/01/18 00:46:14;;;;;;;17.75;14.68;;;;;;;;;;5033881;28;20073;-72
2023/01/18 00:48:40;;;;;;;34.30;21.48;;;;;;;;;;5032512;28;20045;-72
2023/01/18 00:51:06;;;;;;;12.80;9.40;;;;;;;;;;5033819;28;20032;-72
2023/01/18 00:53:31;;;;;;;13.55;10.38;;;;;;;;;;5033433;28;20107;-72
2023/01/18 00:55:57;;;;;;;16.27;10.70;;;;;;;;;;5033481;28;20037;-71
2023/01/18 00:58:22;;;;;;;14.25;10.65;;;;;;;;;;5032598;28;20548;-71
2023/01/18 01:00:50;;;;;;;13.02;9.95;;;;;;;;;;5033627;28;20045;-72
2023/01/18 01:03:15;;;;;;;12.30;9.55;;;;;;;;;;5033500;28;20037;-73
2023/01/18 01:08:24;;;;;;;12.43;9.38;;;;;;;;;;5031998;28;20036;-72
2023/01/18 01:10:52;;;;;;;14.20;9.73;;;;;;;;;;5015879;28;20037;-72
2023/01/18 01:26:58;;;;;;;12.60;9.98;;;;;;;;;;5033668;28;20088;-72
2023/01/18 01:29:23;;;;;;;13.07;10.90;;;;;;;;;;5035521;28;20026;-72
2023/01/18 01:31:49;;;;;;;11.82;9.82;;;;;;;;;;5037215;28;20067;-72
2023/01/18 01:34:14;;;;;;;12.23;9.73;;;;;;;;;;5036984;28;20035;-72
2023/01/18 01:36:39;;;;;;;10.57;8.93;;;;;;;;;;5036815;28;20370;-72
2023/01/18 01:39:06;;;;;;;12.05;9.70;;;;;;;;;;5036886;28;20058;-71
2023/01/18 01:41:31;;;;;;;11.15;9.00;;;;;;;;;;5035730;28;20042;-72
2023/01/18 01:43:59;;;;;;;10.65;8.93;;;;;;;;;;5035550;28;20029;-72
2023/01/18 01:46:36;;;;;;;11.02;8.77;;;;;;;;;;5035646;28;20021;-72
2023/01/18 01:49:06;;;;;;;11.45;9.18;;;;;;;;;;5035551;28;20091;-72
2023/01/18 01:51:33;;;;;;;9.93;8.82;;;;;;;;;;5036760;28;20087;-72
2023/01/18 01:54:00;;;;;;;9.52;8.45;;;;;;;;;;5036617;28;20473;-71
2023/01/18 01:56:25;;;;;;;9.80;7.40;;;;;;;;;;5036849;28;20168;-72
2023/01/18 01:58:55;;;;;;;8.57;7.05;;;;;;;;;;5035101;28;20095;-71
2023/01/18 02:01:21;;;;;;;8.83;7.20;;;;;;;;;;5035130;28;20123;-71
2023/01/18 02:03:46;;;;;;;8.05;7.25;;;;;;;;;;5036447;28;20034;-72
2023/01/18 02:06:30;;;;;;;8.13;7.30;;;;;;;;;;5036210;28;20458;-72
2023/01/18 02:08:59;;;;;;;7.65;6.85;;;;;;;;;;5036164;28;20038;-72
2023/01/18 02:11:25;;;;;;;6.97;6.28;;;;;;;;;;5036509;28;20136;-72
2023/01/18 02:13:54;;;;;;;7.65;6.57;;;;;;;;;;5034957;28;20204;-70
2023/01/18 02:16:29;;;;;;;7.65;6.50;;;;;;;;;;5035825;28;20109;-71
2023/01/18 02:18:54;;;;;;;6.80;6.07;;;;;;;;;;5034522;28;20515;-71
2023/01/18 02:21:39;;;;;;;6.05;5.55;;;;;;;;;;5049802;22;20148;-71
2023/01/18 02:24:23;;;;;;;7.93;5.45;;;;;;;;;;5034742;28;20052;-72
2023/01/18 02:27:15;;;;;;;5.85;5.28;;;;;;;;;;5035873;28;20430;-72
2023/01/18 02:29:47;;;;;;;5.25;4.85;;;;;;;;;;5034820;28;20046;-73
2023/01/18 02:32:13;;;;;;;6.22;5.07;;;;;;;;;;5036080;28;20131;-73
2023/01/18 02:34:40;;;;;;;5.13;4.63;;;;;;;;;;5035876;28;20471;-71
2023/01/18 02:37:09;;;;;;;4.88;4.45;;;;;;;;;;5034776;28;20049;-71
2023/01/18 02:39:53;;;;;;;4.25;3.85;;;;;;;;;;5035991;28;20037;-71
2023/01/18 02:47:50;;;;;;;7.82;5.53;;;;;;;;;;5035787;28;20042;-70
2023/01/18 02:50:20;;;;;;;8.60;5.72;;;;;;;;;;5034129;28;20094;-71
2023/01/18 02:52:46;;;;;;;4.68;4.10;;;;;;;;;;5034442;28;20033;-71
2023/01/18 02:55:15;;;;;;;6.75;4.82;;;;;;;;;;5034290;28;20029;-71
2023/01/18 02:57:41;;;;;;;5.22;4.40;;;;;;;;;;5034453;28;20034;-71
2023/01/18 03:00:07;;;;;;;3.60;3.30;;;;;;;;;;5035700;28;20030;-71
2023/01/18 03:02:33;;;;;;;3.92;3.47;;;;;;;;;;5035390;28;20041;-72
2023/01/18 03:04:59;;;;;;;4.20;3.28;;;;;;;;;;5035532;28;20512;-72
2023/01/18 03:07:24;;;;;;;2.30;2.20;;;;;;;;;;5035393;28;20043;-72
2023/01/18 03:09:50;;;;;;;2.97;2.53;;;;;;;;;;5035336;28;20116;-72
2023/01/18 03:12:16;;;;;;;5.03;3.67;;;;;;;;;;5035007;28;20037;-72
2023/01/18 03:14:42;;;;;;;3.97;3.50;;;;;;;;;;5035447;28;20041;-72
2023/01/18 03:17:07;;;;;;;3.47;3.17;;;;;;;;;;5033982;28;20104;-71
2023/01/18 03:23:36;;;;;;;3.70;3.30;;;;;;;;;;5053697;28;20500;-71
2023/01/18 03:25:10;;;;;;;2.60;2.40;;;;;;;;;;5054602;28;20158;-72
2023/01/18 03:35:48;;;;;;;1.85;1.75;;;;;;;;;;5036852;28;20246;-70
2023/01/18 03:38:15;;;;;;;1.98;1.88;;;;;;;;;;5054678;28;20132;-72
2023/01/18 03:40:40;;;;;;;1.98;1.88;;;;;;;;;;5054530;28;20045;-72
2023/01/18 03:43:15;;;;;;;1.90;1.80;;;;;;;;;;5036857;28;20044;-72
2023/01/18 03:45:52;;;;;;;2.63;2.20;;;;;;;;;;5054713;28;20123;-73
2023/01/18 03:48:17;;;;;;;3.13;2.83;;;;;;;;;;5054491;28;20037;-73
2023/01/18 03:50:51;;;;;;;2.67;2.47;;;;;;;;;;5036319;28;20033;-71
2023/01/18 03:53:23;;;;;;;2.55;2.38;;;;;;;;;;5035193;28;20051;-71
2023/01/18 03:55:50;;;;;;;3.13;2.88;;;;;;;;;;5054253;28;20086;-72
2023/01/18 03:58:18;;;;;;;2.80;2.60;;;;;;;;;;5054342;28;20043;-73
2023/01/18 04:00:43;;;;;;;3.65;3.28;;;;;;;;;;5054275;28;20029;-71
2023/01/18 04:03:09;;;;;;;3.58;3.28;;;;;;;;;;5053889;28;20416;-71
2023/01/18 04:05:34;;;;;;;4.68;3.53;;;;;;;;;;5036101;28;20131;-72
2023/01/18 04:08:00;;;;;;;3.65;3.35;;;;;;;;;;5054161;28;20025;-72
2023/01/18 04:10:25;;;;;;;2.08;1.98;;;;;;;;;;5036170;28;20041;-71
2023/01/18 04:12:51;;;;;;;2.35;2.15;;;;;;;;;;5054021;28;20033;-72
2023/01/18 04:15:16;;;;;;;3.53;3.33;;;;;;;;;;5036237;28;20373;-72
2023/01/18 04:17:42;;;;;;;2.70;2.50;;;;;;;;;;5036063;28;20055;-72
2023/01/18 04:20:07;;;;;;;1.80;1.70;;;;;;;;;;5035915;28;20500;-71
2023/01/18 04:22:33;;;;;;;2.10;2.00;;;;;;;;;;5036205;28;20045;-72
2023/01/18 04:24:58;;;;;;;3.47;3.20;;;;;;;;;;5053875;28;20052;-72
2023/01/18 04:27:24;;;;;;;2.05;1.95;;;;;;;;;;5054026;28;20401;-72
2023/01/18 04:29:50;;;;;;;2.10;2.00;;;;;;;;;;5053984;28;20507;-72
2023/01/18 04:32:16;;;;;;;2.97;2.78;;;;;;;;;;5053726;28;20033;-72
2023/01/18 04:34:41;;;;;;;2.70;2.50;;;;;;;;;;5053594;28;20481;-72
2023/01/18 04:37:07;;;;;;;2.13;2.03;;;;;;;;;;5053528;28;20043;-73
2023/01/18 04:39:32;;;;;;;2.03;1.92;;;;;;;;;;5053459;28;20052;-70
2023/01/18 04:41:57;;;;;;;1.80;1.70;;;;;;;;;;5035612;28;20094;-70
2023/01/18 04:44:23;;;;;;;3.55;3.35;;;;;;;;;;5053333;28;20100;-70
2023/01/18 04:46:48;;;;;;;6.57;5.97;;;;;;;;;;5053417;28;20040;-70
2023/01/18 04:49:16;;;;;;;3.10;2.90;;;;;;;;;;5053394;28;20029;-70
2023/01/18 04:51:45;;;;;;;1.83;1.73;;;;;;;;;;5053398;28;20076;-71
2023/01/18 04:54:10;;;;;;;1.70;1.60;;;;;;;;;;5035518;28;20056;-70
2023/01/18 04:56:36;;;;;;;4.93;4.53;;;;;;;;;;5053307;28;20493;-69
2023/01/18 04:59:01;;;;;;;3.13;2.92;;;;;;;;;;5052882;28;20041;-68
2023/01/18 05:01:28;;;;;;;2.10;2.00;;;;;;;;;;5035788;28;20095;-68
2023/01/18 05:03:55;;;;;;;2.13;2.03;;;;;;;;;;5054464;28;20389;-68
2023/01/18 05:06:20;;;;;;;2.15;2.05;;;;;;;;;;5057804;28;20040;-68
2023/01/18 05:08:45;;;;;;;4.53;4.00;;;;;;;;;;5057576;28;20025;-68
2023/01/18 05:11:12;;;;;;;16.08;11.38;;;;;;;;;;5057518;28;20044;-64
2023/01/18 05:13:38;;;;;;;12.27;9.60;;;;;;;;;;5057064;28;20364;-65
2023/01/18 05:16:04;;;;;;;1.70;1.60;;;;;;;;;;5057156;28;20045;-64
2023/01/18 05:18:29;;;;;;;2.20;2.00;;;;;;;;;;5057086;28;20033;-65
2023/01/18 05:20:55;;;;;;;4.38;4.07;;;;;;;;;;5056617;28;20119;-65
2023/01/18 05:23:20;;;;;;;2.42;2.22;;;;;;;;;;5057065;28;20045;-66
2023/01/18 05:25:50;;;;;;;3.08;2.88;;;;;;;;;;5057123;28;20033;-65
2023/01/18 05:28:16;;;;;;;2.85;2.65;;;;;;;;;;5056862;28;20052;-64
2023/01/18 05:30:41;;;;;;;2.00;1.90;;;;;;;;;;5039248;28;20060;-64
2023/01/18 05:33:07;;;;;;;2.00;1.90;;;;;;;;;;5056878;28;20377;-65
2023/01/18 05:35:33;;;;;;;1.77;1.65;;;;;;;;;;5056906;28;20060;-65
2023/01/18 05:37:58;;;;;;;1.50;1.40;;;;;;;;;;5056211;28;20481;-65
2023/01/18 05:40:24;;;;;;;1.80;1.70;;;;;;;;;;5056759;28;20079;-65
2023/01/18 05:42:49;;;;;;;41.13;13.50;;;;;;;;;;5056512;28;20191;-65
2023/01/18 05:45:14;;;;;;;17.63;7.07;;;;;;;;;;5056625;28;20342;-66
2023/01/18 05:47:40;;;;;;;3.67;3.38;;;;;;;;;;5056635;28;20037;-61
2023/01/18 05:50:06;;;;;;;2.58;2.47;;;;;;;;;;5056671;28;20486;-65
2023/01/18 05:52:31;;;;;;;2.63;2.42;;;;;;;;;;5043592;28;20033;-64
2023/01/18 05:54:56;;;;;;;2.58;2.38;;;;;;;;;;5036470;28;20465;-67
2023/01/18 05:57:21;;;;;;;4.88;4.47;;;;;;;;;;5036121;28;20508;-67
2023/01/18 05:59:48;;;;;;;6.60;6.05;;;;;;;;;;5036214;28;20049;-67
2023/01/18 06:02:13;;;;;;;6.18;5.57;;;;;;;;;;5018868;28;20489;-67
2023/01/18 06:04:40;;;;;;;5.00;4.60;;;;;;;;;;5036101;28;20031;-74
2023/01/18 06:07:05;;;;;;;40.00;36.17;;;;;;;;;;5036226;28;20413;-65
2023/01/18 06:09:30;;;;;;;15.23;13.73;;;;;;;;;;5036123;28;20080;-66
2023/01/18 06:11:56;;;;;;;15.82;10.77;;;;;;;;;;5035846;28;20033;-65
2023/01/18 06:14:21;;;;;;;11.85;9.90;;;;;;;;;;5036082;28;20136;-65
2023/01/18 06:16:46;;;;;;;35.45;29.48;;;;;;;;;;5017420;28;20061;-65
2023/01/18 06:19:12;;;;;;;15.32;13.82;;;;;;;;;;5036072;28;20472;-65
2023/01/18 06:21:37;;;;;;;8.02;7.32;;;;;;;;;;5035996;28;20045;-64
2023/01/18 06:24:02;;;;;;;8.35;7.72;;;;;;;;;;5036348;28;20050;-65
2023/01/18 06:26:30;;;;;;;13.93;12.82;;;;;;;;;;5036283;28;20049;-64
2023/01/18 06:28:55;;;;;;;15.63;14.30;;;;;;;;;;5018677;28;20069;-74
2023/01/18 06:31:21;;;;;;;4.50;4.10;;;;;;;;;;5036218;28;20095;-74
2023/01/18 06:33:47;;;;;;;8.35;5.00;;;;;;;;;;5018137;28;20397;-74
2023/01/18 06:36:12;;;;;;;7.40;6.75;;;;;;;;;;5035879;28;20200;-74
2023/01/18 06:38:38;;;;;;;7.68;6.97;;;;;;;;;;5035847;28;20045;-74
2023/01/18 06:41:03;;;;;;;8.18;7.47;;;;;;;;;;5018253;28;20080;-73
2023/01/18 06:43:28;;;;;;;9.43;8.65;;;;;;;;;;5001596;28;20037;-73
2023/01/18 06:45:55;;;;;;;7.40;6.85;;;;;;;;;;5035925;28;20017;-73
2023/01/18 06:48:22;;;;;;;17.73;15.98;;;;;;;;;;5017848;28;20049;-73
2023/01/18 06:50:48;;;;;;;17.52;14.90;;;;;;;;;;5035917;28;20046;-73
2023/01/18 06:53:13;;;;;;;11.57;10.57;;;;;;;;;;5034626;28;20444;-73
2023/01/18 06:55:38;;;;;;;8.70;7.93;;;;;;;;;;5033541;28;20049;-73
2023/01/18 06:58:03;;;;;;;21.88;16.13;;;;;;;;;;5033484;28;20477;-73
2023/01/18 07:00:29;;;;;;;52.90;32.63;;;;;;;;;;5033405;28;20040;-73
2023/01/18 07:02:56;;;;;;;61.30;37.55;;;;;;;;;;5015694;28;20061;-73
2023/01/18 07:05:21;;;;;;;24.60;17.67;;;;;;;;;;5033210;28;20045;-73
2023/01/18 07:07:47;;;;;;;5.88;5.25;;;;;;;;;;5033555;28;20493;-73
2023/01/18 07:10:13;;;;;;;3.50;3.20;;;;;;;;;;5033608;22;20033;-70
2023/01/18 07:12:38;;;;;;;3.22;2.92;;;;;;;;;;5052298;23;20071;-71
2023/01/18 07:15:05;;;;;;;3.05;2.85;;;;;;;;;;5046877;23;20057;-71
2023/01/18 07:17:30;;;;;;;7.78;6.97;;;;;;;;;;5034155;28;20523;-71
2023/01/18 07:19:55;;;;;;;15.40;11.63;;;;;;;;;;5035089;28;20073;-71
2023/01/18 07:22:22;;;;;;;11.93;9.07;;;;;;;;;;5034990;28;20038;-71
2023/01/18 07:24:47;;;;;;;23.77;18.60;;;;;;;;;;5035054;28;20096;-70
2023/01/18 07:27:13;;;;;;;14.93;12.68;;;;;;;;;;5034920;28;20041;-71
2023/01/18 07:29:38;;;;;;;7.53;6.82;;;;;;;;;;5033576;28;20041;-71
2023/01/18 07:32:03;;;;;;;8.57;7.68;;;;;;;;;;5034815;28;20072;-71
2023/01/18 07:34:29;;;;;;;7.00;6.40;;;;;;;;;;5035302;28;20091;-70
2023/01/18 07:36:54;;;;;;;7.10;6.05;;;;;;;;;;5034692;28;20048;-71
2023/01/18 07:39:19;;;;;;;5.30;4.80;;;;;;;;;;5033805;28;20068;-71
2023/01/18 07:41:45;;;;;;;13.02;10.85;;;;;;;;;;5033775;28;20117;-72
2023/01/18 07:44:10;;;;;;;8.70;7.82;;;;;;;;;;5047555;22;20053;-72
2023/01/18 07:46:36;;;;;;;12.90;8.90;;;;;;;;;;5034809;28;20041;-72
2023/01/18 07:49:04;;;;;;;18.58;12.48;;;;;;;;;;5033362;28;20470;-72
2023/01/18 07:51:30;;;;;;;9.63;8.32;;;;;;;;;;5034470;28;20026;-72
2023/01/18 07:53:55;;;;;;;24.92;16.95;;;;;;;;;;5033174;28;20132;-73
2023/01/18 07:56:21;;;;;;;20.40;14.25;;;;;;;;;;5034392;28;20038;-73
2023/01/18 07:58:48;;;;;;;16.67;11.20;;;;;;;;;;5033172;28;20065;-73
2023/01/18 08:01:15;;;;;;;11.75;9.23;;;;;;;;;;5033039;28;20045;-73
2023/01/18 08:03:41;;;;;;;9.02;8.15;;;;;;;;;;5034482;28;20049;-73
2023/01/18 08:06:06;;;;;;;9.70;8.68;;;;;;;;;;5034233;28;20021;-73
2023/01/18 08:08:32;;;;;;;9.50;7.93;;;;;;;;;;5034956;28;20043;-72
2023/01/18 08:10:59;;;;;;;7.75;6.45;;;;;;;;;;5034388;28;20080;-73
2023/01/18 08:13:25;;;;;;;11.57;9.00;;;;;;;;;;5032823;28;20068;-73
2023/01/18 08:15:51;;;;;;;15.00;10.73;;;;;;;;;;5033174;28;20042;-73
2023/01/18 08:18:16;;;;;;;14.98;9.35;;;;;;;;;;5033954;28;20393;-73
2023/01/18 08:20:42;;;;;;;17.40;12.55;;;;;;;;;;5016857;28;20045;-73
2023/01/18 08:23:08;;;;;;;13.68;10.35;;;;;;;;;;5034207;28;20048;-73
2023/01/18 08:25:33;;;;;;;12.82;9.88;;;;;;;;;;5033895;28;20041;-73
2023/01/18 08:27:59;;;;;;;17.65;11.13;;;;;;;;;;5032622;28;20033;-73
2023/01/18 08:30:27;;;;;;;17.42;11.18;;;;;;;;;;5033800;28;20053;-73
2023/01/18 08:32:56;;;;;;;18.75;12.88;;;;;;;;;;5033828;28;20045;-73
2023/01/18 08:35:22;;;;;;;21.88;13.95;;;;;;;;;;5033765;28;20088;-73
2023/01/18 08:37:47;;;;;;;15.88;10.63;;;;;;;;;;5033749;28;20037;-73
2023/01/18 08:40:13;;;;;;;15.68;9.98;;;;;;;;;;5032156;28;20068;-73
2023/01/18 08:42:38;;;;;;;16.17;10.13;;;;;;;;;;5032506;28;20071;-73
2023/01/18 08:45:03;;;;;;;21.80;11.77;;;;;;;;;;5033587;28;20045;-73
2023/01/18 08:47:29;;;;;;;15.52;9.45;;;;;;;;;;5034194;28;20537;-73
2023/01/18 08:49:54;;;;;;;17.85;10.63;;;;;;;;;;5033616;28;20370;-73
2023/01/18 08:52:20;;;;;;;29.27;13.07;;;;;;;;;;5033596;28;20033;-73
2023/01/18 08:54:45;;;;;;;30.98;13.77;;;;;;;;;;5032273;28;20034;-73
2023/01/18 08:57:11;;;;;;;23.75;12.60;;;;;;;;;;5033534;28;20049;-72
2023/01/18 08:59:36;;;;;;;15.95;10.15;;;;;;;;;;5033517;28;20052;-72
2023/01/18 09:02:01;;;;;;;11.75;9.02;;;;;;;;;;5033682;28;20068;-73
2023/01/18 09:04:30;;;;;;;9.65;7.63;;;;;;;;;;5033647;28;20171;-73
2023/01/18 09:06:55;;;;;;;9.95;7.82;;;;;;;;;;5033693;28;20042;-73
2023/01/18 09:09:20;;;;;;;8.63;7.43;;;;;;;;;;5033394;28;20037;-72
2023/01/18 09:11:48;;;;;;;9.55;8.43;;;;;;;;;;5032214;28;20100;-72
2023/01/18 09:14:14;;;;;;;29.35;17.88;;;;;;;;;;5033335;28;20063;-72
2023/01/18 09:16:39;;;;;;;22.58;17.08;;;;;;;;;;5033302;28;20115;-72
2023/01/18 09:19:05;;;;;;;11.90;10.77;;;;;;;;;;5033544;28;20128;-73
2023/01/18 09:21:30;;;;;;;9.15;8.25;;;;;;;;;;5032008;28;20049;-73
2023/01/18 09:23:56;;;;;;;6.90;5.53;;;;;;;;;;5033505;28;20036;-73
2023/01/18 09:26:22;;;;;;;6.80;6.00;;;;;;;;;;5033520;28;20038;-73
2023/01/18 09:28:49;;;;;;;7.63;6.88;;;;;;;;;;5032801;28;20030;-72
2023/01/18 09:31:15;;;;;;;7.60;6.85;;;;;;;;;;5033169;28;20543;-72
2023/01/18 09:33:41;;;;;;;9.23;8.10;;;;;;;;;;5033033;28;20033;-72
2023/01/18 09:36:08;;;;;;;8.50;7.53;;;;;;;;;;5033430;28;20042;-72
2023/01/18 09:38:35;;;;;;;8.63;7.03;;;;;;;;;;5033145;28;20040;-72
2023/01/18 09:41:01;;;;;;;7.53;6.13;;;;;;;;;;5031868;28;20378;-72
2023/01/18 09:43:28;;;;;;;7.85;6.88;;;;;;;;;;5031572;28;20048;-72
2023/01/18 09:45:54;;;;;;;10.40;7.60;;;;;;;;;;5031818;28;20037;-72
2023/01/18 09:48:38;;;;;;;7.60;6.80;;;;;;;;;;5033059;28;20041;-72
2023/01/18 09:51:05;;;;;;;5.97;4.97;;;;;;;;;;5035940;28;20128;-72
2023/01/18 09:53:47;;;;;;;9.20;6.75;;;;;;;;;;5036672;28;20069;-72
2023/01/18 09:56:21;;;;;;;8.90;6.78;;;;;;;;;;5035411;28;20033;-72
2023/01/18 09:58:58;;;;;;;10.43;7.57;;;;;;;;;;5035724;28;20124;-72
2023/01/18 10:01:29;;;;;;;12.77;9.68;;;;;;;;;;5036855;28;20037;-72
2023/01/18 10:03:54;;;;;;;;;;;;;;;;;;5037119;28;20080;-72
2023/01/18 10:06:31;;;;;;;8.53;6.67;;;;;;;;;;5035258;28;19941;-72
2023/01/18 10:08:56;;;;;;;11.68;9.10;;;;;;;;;;5036960;28;20037;-72
2023/01/18 10:11:28;;;;;;;11.65;8.88;;;;;;;;;;5036638;28;20389;-72
2023/01/18 10:14:05;;;;;;;8.55;6.30;;;;;;;;;;5018660;28;20045;-72
2023/01/18 10:16:31;;;;;;;7.97;6.57;;;;;;;;;;5036569;28;20095;-72
2023/01/18 10:18:57;;;;;;;6.38;5.60;;;;;;;;;;5036226;28;20041;-72
2023/01/18 10:21:29;;;;;;;6.22;5.32;;;;;;;;;;5036210;28;20041;-72
2023/01/18 10:24:00;;;;;;;5.90;5.30;;;;;;;;;;5036018;28;20053;-72
2023/01/18 10:26:25;;;;;;;6.35;5.72;;;;;;;;;;5036588;28;20375;-73
2023/01/18 10:28:59;;;;;;;7.10;5.78;;;;;;;;;;5036323;28;20087;-73
2023/01/18 10:31:43;;;;;;;6.50;4.57;;;;;;;;;;5036276;28;20064;-72
2023/01/18 10:34:15;;;;;;;7.28;5.95;;;;;;;;;;5036186;28;20030;-75
2023/01/18 10:36:42;;;;;;;5.70;5.18;;;;;;;;;;5035899;28;20473;-75
2023/01/18 10:39:34;;;;;;;6.40;5.78;;;;;;;;;;5035867;28;20496;-75
2023/01/18 10:42:01;;;;;;;7.00;5.95;;;;;;;;;;5029989;28;20480;-75
2023/01/18 10:44:27;;;;;;;7.50;5.95;;;;;;;;;;5035699;28;20042;-75
2023/01/18 10:46:57;;;;;;;9.02;6.72;;;;;;;;;;5018031;28;20042;-75
2023/01/18 10:49:53;;;;;;;7.90;5.97;;;;;;;;;;5035661;28;20405;-75
2023/01/18 10:52:21;;;;;;;6.93;5.55;;;;;;;;;;5019805;28;20049;-75
2023/01/18 10:54:51;;;;;;;6.78;5.70;;;;;;;;;;5035863;28;20384;-75
2023/01/18 10:57:19;;;;;;;6.63;5.97;;;;;;;;;;5034681;28;20076;-75
2023/01/18 10:59:45;;;;;;;7.55;5.95;;;;;;;;;;5035516;28;20037;-75
2023/01/18 11:02:22;;;;;;;6.80;5.95;;;;;;;;;;5034831;28;20498;-74
2023/01/18 11:04:53;;;;;;;6.43;5.40;;;;;;;;;;5035639;28;20045;-75
2023/01/18 11:07:22;;;;;;;7.28;5.78;;;;;;;;;;5017663;28;20034;-74
2023/01/18 11:09:55;;;;;;;8.73;6.50;;;;;;;;;;5035565;28;20038;-75
2023/01/18 11:12:43;;;;;;;8.95;7.00;;;;;;;;;;5034504;28;20801;-74
2023/01/18 11:15:14;;;;;;;6.85;5.97;;;;;;;;;;5035487;28;20596;-74
2023/01/18 11:17:42;;;;;;;10.00;6.63;;;;;;;;;;5033894;28;20382;-74
2023/01/18 11:20:15;;;;;;;9.35;6.95;;;;;;;;;;5034188;28;20156;-75
2023/01/18 11:22:57;;;;;;;8.27;6.40;;;;;;;;;;5034171;28;20045;-74
2023/01/18 11:25:24;;;;;;;7.82;6.78;;;;;;;;;;5035194;28;20037;-74
2023/01/18 11:27:49;;;;;;;5.45;4.93;;;;;;;;;;5035221;28;20041;-74
2023/01/18 11:30:22;;;;;;;7.88;6.18;;;;;;;;;;5035183;28;20091;-75
2023/01/18 11:32:48;;;;;;;6.97;6.15;;;;;;;;;;5034439;28;20362;-75
2023/01/18 11:35:20;;;;;;;8.40;6.32;;;;;;;;;;5033655;28;20048;-74
2023/01/18 11:37:46;;;;;;;7.97;6.03;;;;;;;;;;5033530;28;20115;-74
2023/01/18 11:40:17;;;;;;;6.50;5.78;;;;;;;;;;5034990;28;20072;-74
2023/01/18 11:42:43;;;;;;;7.32;6.05;;;;;;;;;;5034922;28;20545;-74
2023/01/18 11:45:26;;;;;;;7.05;6.30;;;;;;;;;;5034350;28;20137;-74
2023/01/18 11:48:02;;;;;;;5.78;5.18;;;;;;;;;;5033278;28;20033;-74
2023/01/18 11:50:34;;;;;;;5.32;4.82;;;;;;;;;;5033265;28;20029;-74
2023/01/18 11:53:14;;;;;;;5.55;4.78;;;;;;;;;;5034738;28;20079;-74
2023/01/18 11:56:06;;;;;;;5.65;5.13;;;;;;;;;;5034705;28;20096;-72
2023/01/18 11:58:33;;;;;;;4.90;4.35;;;;;;;;;;5033150;28;20038;-72
2023/01/18 12:01:13;;;;;;;5.55;5.05;;;;;;;;;;5034535;28;20076;-72
2023/01/18 12:03:38;;;;;;;5.65;5.10;;;;;;;;;;5034200;28;20029;-72
2023/01/18 12:06:16;;;;;;;6.57;5.88;;;;;;;;;;5046159;23;20569;-71
2023/01/18 12:08:53;;;;;;;5.57;5.07;;;;;;;;;;5063525;23;20152;-71
2023/01/18 12:11:25;;;;;;;5.97;5.30;;;;;;;;;;5062572;23;20080;-71
2023/01/18 12:13:58;;;;;;;6.35;5.75;;;;;;;;;;5033526;28;20450;-71
2023/01/18 12:16:50;;;;;;;5.35;4.93;;;;;;;;;;5033161;28;20059;-71
2023/01/18 12:19:16;;;;;;;6.32;5.68;;;;;;;;;;5003777;28;20109;-72
2023/01/18 12:21:41;;;;;;;6.28;5.40;;;;;;;;;;5034241;28;20129;-72
2023/01/18 12:24:09;;;;;;;5.40;4.90;;;;;;;;;;5034162;28;20037;-72
2023/01/18 12:26:45;;;;;;;5.75;5.15;;;;;;;;;;5034446;28;20052;-72
2023/01/18 12:29:29;;;;;;;6.13;5.45;;;;;;;;;;5033919;28;20073;-72
2023/01/18 12:32:12;;;;;;;6.20;5.57;;;;;;;;;;5034142;28;20038;-73
2023/01/18 12:34:53;;;;;;;6.70;6.00;;;;;;;;;;5032580;28;20037;-72
2023/01/18 12:37:18;;;;;;;;;;;;;;;;;;5034170;28;20095;-72
2023/01/18 12:39:53;;;;;;;6.70;6.03;;;;;;;;;;5033721;28;19913;-72
2023/01/18 12:42:26;;;;;;;7.05;6.13;;;;;;;;;;5047825;23;20053;-71
2023/01/18 12:44:59;;;;;;;7.63;6.85;;;;;;;;;;5033892;28;20108;-70
2023/01/18 12:47:33;;;;;;;8.43;7.50;;;;;;;;;;5033650;28;20046;-71
2023/01/18 12:50:00;;;;;;;6.40;5.03;;;;;;;;;;5032360;28;20133;-71
2023/01/18 12:52:26;;;;;;;8.73;7.72;;;;;;;;;;5033866;28;20022;-71
2023/01/18 12:54:56;;;;;;;10.60;8.18;;;;;;;;;;5033548;28;20048;-71
2023/01/18 12:57:22;;;;;;;10.07;8.07;;;;;;;;;;5033861;28;20120;-70
2023/01/18 12:59:56;;;;;;;9.93;8.05;;;;;;;;;;5032286;28;20073;-71
2023/01/18 13:02:28;;;;;;;11.88;9.20;;;;;;;;;;5033465;28;20103;-71
2023/01/18 13:05:06;;;;;;;12.55;8.63;;;;;;;;;;5033648;28;20048;-71
2023/01/18 13:07:34;;;;;;;9.60;7.45;;;;;;;;;;5015756;28;20132;-71
2023/01/18 13:10:00;;;;;;;16.27;9.77;;;;;;;;;;5033733;28;20037;-71
2023/01/18 13:12:25;;;;;;;14.30;10.82;;;;;;;;;;5032080;28;20500;-70
2023/01/18 13:15:00;;;;;;;13.15;10.35;;;;;;;;;;5033342;28;20041;-71
2023/01/18 13:17:36;;;;;;;15.65;10.48;;;;;;;;;;5033567;28;20477;-71
2023/01/18 13:20:08;;;;;;;17.13;12.07;;;;;;;;;;5032031;28;20033;-71
2023/01/18 13:22:52;;;;;;;14.95;11.32;;;;;;;;;;5032130;28;20124;-71
2023/01/18 13:25:36;;;;;;;18.90;12.52;;;;;;;;;;5034362;28;20041;-71
2023/01/18 13:28:04;;;;;;;17.50;12.90;;;;;;;;;;5037736;28;20045;-71
2023/01/18 13:30:31;;;;;;;19.00;12.93;;;;;;;;;;5035998;28;20041;-70
2023/01/18 13:32:56;;;;;;;20.15;13.73;;;;;;;;;;5037125;28;20065;-70
2023/01/18 13:35:32;;;;;;;21.80;14.57;;;;;;;;;;5037389;28;20041;-71
2023/01/18 13:38:10;;;;;;;17.98;13.55;;;;;;;;;;5037322;28;20041;-70
2023/01/18 13:40:38;;;;;;;21.40;13.75;;;;;;;;;;5037206;28;20041;-71
2023/01/18 13:43:04;;;;;;;22.67;14.80;;;;;;;;;;5036755;28;20045;-71
2023/01/18 13:45:30;;;;;;;20.30;14.57;;;;;;;;;;5037104;28;20046;-71
2023/01/18 13:48:06;;;;;;;23.50;16.75;;;;;;;;;;5037092;28;20176;-70
2023/01/18 13:50:35;;;;;;;22.45;14.68;;;;;;;;;;5035540;28;20073;-71
2023/01/18 13:53:12;;;;;;;22.95;15.45;;;;;;;;;;5037045;28;20042;-71
2023/01/18 13:55:38;;;;;;;23.17;15.05;;;;;;;;;;5035541;28;20046;-71
2023/01/18 13:58:03;;;;;;;23.85;15.48;;;;;;;;;;5036955;28;20029;-71
2023/01/18 14:00:30;;;;;;;23.33;16.17;;;;;;;;;;5035357;28;20037;-71
2023/01/18 14:03:03;;;;;;;21.75;13.57;;;;;;;;;;5035409;28;20060;-70
2023/01/18 14:05:35;;;;;;;25.90;18.58;;;;;;;;;;5036741;28;20109;-71
2023/01/18 14:08:01;;;;;;;27.10;17.58;;;;;;;;;;5035326;28;20125;-71
2023/01/18 14:10:33;;;;;;;28.20;18.10;;;;;;;;;;5036414;28;20064;-71
2023/01/18 14:12:59;;;;;;;25.15;16.95;;;;;;;;;;5036665;28;20037;-70
2023/01/18 14:15:48;;;;;;;26.85;17.95;;;;;;;;;;5036333;28;20045;-70
2023/01/18 14:18:19;;;;;;;24.15;15.48;;;;;;;;;;5024649;28;20045;-71
2023/01/18 14:20:54;;;;;;;21.77;13.77;;;;;;;;;;5036855;28;20120;-70
2023/01/18 14:23:26;;;;;;;23.58;15.10;;;;;;;;;;5036505;28;20065;-71
2023/01/18 14:25:54;;;;;;;18.20;13.35;;;;;;;;;;5036049;28;20037;-71
2023/01/18 14:28:24;;;;;;;20.55;13.05;;;;;;;;;;5036159;28;20104;-70
2023/01/18 14:30:53;;;;;;;21.83;14.40;;;;;;;;;;5036004;28;20042;-70
2023/01/18 14:33:23;;;;;;;25.38;15.25;;;;;;;;;;5034882;28;20112;-70
2023/01/18 14:35:50;;;;;;;20.35;14.13;;;;;;;;;;5034391;28;20025;-70
2023/01/18 14:38:16;;;;;;;16.63;12.10;;;;;;;;;;5033022;28;20401;-70
2023/01/18 14:40:42;;;;;;;22.90;15.80;;;;;;;;;;5033610;28;20038;-70
2023/01/18 14:43:26;;;;;;;22.52;15.23;;;;;;;;;;5034589;28;20044;-70
2023/01/18 14:45:54;;;;;;;17.42;13.07;;;;;;;;;;5034628;28;20446;-70
2023/01/18 14:48:22;;;;;;;17.95;13.40;;;;;;;;;;5034667;28;20044;-71
2023/01/18 14:50:48;;;;;;;19.00;12.65;;;;;;;;;;5034639;28;20121;-70
2023/01/18 14:53:20;;;;;;;19.27;13.18;;;;;;;;;;5034563;28;20041;-70
2023/01/18 14:56:04;;;;;;;20.13;12.90;;;;;;;;;;5033287;28;20069;-70
2023/01/18 14:58:41;;;;;;;18.30;13.88;;;;;;;;;;5033153;28;20474;-70
2023/01/18 15:01:07;;;;;;;17.77;13.50;;;;;;;;;;5034468;28;20037;-70
2023/01/18 15:03:33;;;;;;;17.27;12.27;;;;;;;;;;5034349;28;20049;-70
2023/01/18 15:06:01;;;;;;;18.40;12.65;;;;;;;;;;5034452;28;20091;-70
2023/01/18 15:08:29;;;;;;;19.80;13.25;;;;;;;;;;5034448;28;20476;-70
2023/01/18 15:10:54;;;;;;;19.95;13.90;;;;;;;;;;5034105;28;20390;-70
2023/01/18 15:13:21;;;;;;;19.75;13.32;;;;;;;;;;5035245;28;20033;-70
2023/01/18 15:15:47;;;;;;;20.40;13.38;;;;;;;;;;5035508;28;20037;-70